sensor_id;sensor_type;location;lat;lon;timestamp;P1;durP1;ratioP1;P2;durP2;ratioP2
21677;SDS011;11000;50.360;7.582;2023-05-07T00:01:54;6.37;;;4.30;;
21677;SDS011;11000;50.360;7.582;2023-05-07T00:04:14;6.73;;;3.97;;
21677;SDS011;11000;50.360;7.582;2023-05-07T00:06:35;4.53;;;4.03;;
21677;SDS011;11000;50.360;7.582;2023-05-07T00:08:58;6.13;;;3.90;;
21677;SDS011;11000;50.360;7.582;2023-05-07T00:11:20;7.40;;;3.80;;
21677;SDS011;11000;50.360;7.582;2023-05-07T00:13:41;4.37;;;3.83;;
21677;SDS011;11000;50.360;7.582;2023-05-07T00:16:02;4.67;;;3.53;;
21677;SDS011;11000;50.360;7.582;2023-05-07T00:18:22;4.03;;;3.63;;
21677;SDS011;11000;50.360;7.582;2023-05-07T00:20:43;5.63;;;3.70;;
21677;SDS011;11000;50.360;7.582;2023-05-07T00:23:03;5.47;;;3.50;;
21677;SDS011;11000;50.360;7.582;2023-05-07T00:25:24;5.73;;;3.67;;
21677;SDS011;11000;50.360;7.582;2023-05-07T00:27:45;6.83;;;3.30;;
21677;SDS011;11000;50.360;7.582;2023-05-07T00:30:06;9.00;;;4.20;;
21677;SDS011;11000;50.360;7.582;2023-05-07T00:32:28;4.63;;;3.57;;
21677;SDS011;11000;50.360;7.582;2023-05-07T00:34:48;5.57;;;3.93;;
21677;SDS011;11000;50.360;7.582;2023-05-07T00:37:10;5.17;;;3.87;;
21677;SDS011;11000;50.360;7.582;2023-05-07T00:39:31;4.50;;;3.67;;
21677;SDS011;11000;50.360;7.582;2023-05-07T00:41:52;5.13;;;3.43;;
21677;SDS011;11000;50.360;7.582;2023-05-07T00:44:13;6.73;;;3.73;;
21677;SDS011;11000;50.360;7.582;2023-05-07T00:46:34;6.20;;;3.93;;
21677;SDS011;11000;50.360;7.582;2023-05-07T00:48:55;3.93;;;3.53;;
21677;SDS011;11000;50.360;7.582;2023-05-07T00:51:15;4.73;;;3.83;;
21677;SDS011;11000;50.360;7.582;2023-05-07T00:53:37;5.20;;;3.87;;
21677;SDS011;11000;50.360;7.582;2023-05-07T00:55:58;5.90;;;3.80;;
21677;SDS011;11000;50.360;7.582;2023-05-07T00:58:21;7.03;;;3.70;;
21677;SDS011;11000;50.360;7.582;2023-05-07T01:00:41;4.20;;;3.80;;
21677;SDS011;11000;50.360;7.582;2023-05-07T01:03:02;7.10;;;4.70;;
21677;SDS011;11000;50.360;7.582;2023-05-07T01:05:23;5.63;;;4.03;;
21677;SDS011;11000;50.360;7.582;2023-05-07T01:07:44;4.27;;;3.77;;
21677;SDS011;11000;50.360;7.582;2023-05-07T01:10:06;5.37;;;4.10;;
21677;SDS011;11000;50.360;7.582;2023-05-07T01:12:28;6.80;;;4.10;;
21677;SDS011;11000;50.360;7.582;2023-05-07T01:14:50;5.20;;;4.20;;
21677;SDS011;11000;50.360;7.582;2023-05-07T01:17:11;4.73;;;4.33;;
21677;SDS011;11000;50.360;7.582;2023-05-07T01:19:32;5.57;;;4.27;;
21677;SDS011;11000;50.360;7.582;2023-05-07T01:21:53;6.13;;;4.27;;
21677;SDS011;11000;50.360;7.582;2023-05-07T01:24:21;5.57;;;4.23;;
21677;SDS011;11000;50.360;7.582;2023-05-07T01:26:42;6.03;;;3.97;;
21677;SDS011;11000;50.360;7.582;2023-05-07T01:29:04;5.17;;;4.33;;
21677;SDS011;11000;50.360;7.582;2023-05-07T01:31:24;4.97;;;4.00;;
21677;SDS011;11000;50.360;7.582;2023-05-07T01:33:45;4.30;;;3.90;;
21677;SDS011;11000;50.360;7.582;2023-05-07T01:36:08;7.63;;;3.70;;
21677;SDS011;11000;50.360;7.582;2023-05-07T01:38:30;5.13;;;3.60;;
21677;SDS011;11000;50.360;7.582;2023-05-07T01:40:51;6.57;;;3.93;;
21677;SDS011;11000;50.360;7.582;2023-05-07T01:43:12;4.63;;;4.07;;
21677;SDS011;11000;50.360;7.582;2023-05-07T01:45:32;5.40;;;3.73;;
21677;SDS011;11000;50.360;7.582;2023-05-07T01:47:54;6.10;;;3.70;;
21677;SDS011;11000;50.360;7.582;2023-05-07T01:50:15;6.63;;;3.90;;
21677;SDS011;11000;50.360;7.582;2023-05-07T01:52:38;5.37;;;3.67;;
21677;SDS011;11000;50.360;7.582;2023-05-07T01:54:59;4.83;;;3.70;;
21677;SDS011;11000;50.360;7.582;2023-05-07T01:57:19;4.40;;;3.90;;
21677;SDS011;11000;50.360;7.582;2023-05-07T01:59:40;5.17;;;4.00;;
21677;SDS011;11000;50.360;7.582;2023-05-07T02:02:00;4.80;;;3.73;;
21677;SDS011;11000;50.360;7.582;2023-05-07T02:04:21;5.67;;;3.93;;
21677;SDS011;11000;50.360;7.582;2023-05-07T02:06:41;5.43;;;3.60;;
21677;SDS011;11000;50.360;7.582;2023-05-07T02:09:01;4.47;;;3.63;;
21677;SDS011;11000;50.360;7.582;2023-05-07T02:11:22;6.07;;;4.30;;
21677;SDS011;11000;50.360;7.582;2023-05-07T02:13:42;5.83;;;4.07;;
21677;SDS011;11000;50.360;7.582;2023-05-07T02:16:03;6.73;;;4.60;;
21677;SDS011;11000;50.360;7.582;2023-05-07T02:18:24;6.63;;;4.03;;
21677;SDS011;11000;50.360;7.582;2023-05-07T02:20:44;4.67;;;4.07;;
21677;SDS011;11000;50.360;7.582;2023-05-07T02:23:05;4.10;;;3.70;;
21677;SDS011;11000;50.360;7.582;2023-05-07T02:25:25;4.47;;;3.70;;
21677;SDS011;11000;50.360;7.582;2023-05-07T02:27:46;5.00;;;4.17;;
21677;SDS011;11000;50.360;7.582;2023-05-07T02:30:07;9.73;;;4.10;;
21677;SDS011;11000;50.360;7.582;2023-05-07T02:32:27;4.50;;;4.07;;
21677;SDS011;11000;50.360;7.582;2023-05-07T02:34:50;5.87;;;4.43;;
21677;SDS011;11000;50.360;7.582;2023-05-07T02:37:10;4.80;;;4.27;;
21677;SDS011;11000;50.360;7.582;2023-05-07T02:39:31;6.37;;;4.33;;
21677;SDS011;11000;50.360;7.582;2023-05-07T02:41:51;6.33;;;4.40;;
21677;SDS011;11000;50.360;7.582;2023-05-07T02:44:12;4.90;;;4.00;;
21677;SDS011;11000;50.360;7.582;2023-05-07T02:46:32;5.47;;;4.40;;
21677;SDS011;11000;50.360;7.582;2023-05-07T02:48:53;5.40;;;4.53;;
21677;SDS011;11000;50.360;7.582;2023-05-07T02:51:14;5.20;;;4.10;;
21677;SDS011;11000;50.360;7.582;2023-05-07T02:53:34;5.23;;;4.30;;
21677;SDS011;11000;50.360;7.582;2023-05-07T02:55:55;4.97;;;4.30;;
21677;SDS011;11000;50.360;7.582;2023-05-07T02:58:16;7.13;;;4.40;;
21677;SDS011;11000;50.360;7.582;2023-05-07T03:00:37;4.80;;;4.30;;
21677;SDS011;11000;50.360;7.582;2023-05-07T03:02:57;7.27;;;4.50;;
21677;SDS011;11000;50.360;7.582;2023-05-07T03:05:18;6.50;;;4.30;;
21677;SDS011;11000;50.360;7.582;2023-05-07T03:07:38;7.87;;;4.27;;
21677;SDS011;11000;50.360;7.582;2023-05-07T03:09:59;6.73;;;4.33;;
21677;SDS011;11000;50.360;7.582;2023-05-07T03:12:20;4.23;;;3.90;;
21677;SDS011;11000;50.360;7.582;2023-05-07T03:14:40;7.10;;;4.20;;
21677;SDS011;11000;50.360;7.582;2023-05-07T03:17:01;5.37;;;3.80;;
21677;SDS011;11000;50.360;7.582;2023-05-07T03:19:22;4.57;;;3.93;;
21677;SDS011;11000;50.360;7.582;2023-05-07T03:21:42;7.93;;;4.23;;
21677;SDS011;11000;50.360;7.582;2023-05-07T03:24:03;4.77;;;3.50;;
21677;SDS011;11000;50.360;7.582;2023-05-07T03:26:24;4.77;;;4.37;;
21677;SDS011;11000;50.360;7.582;2023-05-07T03:28:45;4.43;;;4.03;;
21677;SDS011;11000;50.360;7.582;2023-05-07T03:31:05;5.20;;;3.90;;
21677;SDS011;11000;50.360;7.582;2023-05-07T03:33:26;9.20;;;3.87;;
21677;SDS011;11000;50.360;7.582;2023-05-07T03:35:47;4.23;;;3.80;;
21677;SDS011;11000;50.360;7.582;2023-05-07T03:38:07;4.87;;;4.37;;
21677;SDS011;11000;50.360;7.582;2023-05-07T03:40:28;4.20;;;3.80;;
21677;SDS011;11000;50.360;7.582;2023-05-07T03:42:48;5.97;;;4.27;;
21677;SDS011;11000;50.360;7.582;2023-05-07T03:45:09;4.70;;;4.20;;
21677;SDS011;11000;50.360;7.582;2023-05-07T03:47:30;7.10;;;4.10;;
21677;SDS011;11000;50.360;7.582;2023-05-07T03:49:50;5.07;;;4.20;;
21677;SDS011;11000;50.360;7.582;2023-05-07T03:52:12;4.87;;;4.37;;
21677;SDS011;11000;50.360;7.582;2023-05-07T03:54:33;6.23;;;4.50;;
21677;SDS011;11000;50.360;7.582;2023-05-07T03:56:54;6.67;;;5.30;;
21677;SDS011;11000;50.360;7.582;2023-05-07T03:59:14;5.03;;;4.40;;
21677;SDS011;11000;50.360;7.582;2023-05-07T04:01:35;5.37;;;4.63;;
21677;SDS011;11000;50.360;7.582;2023-05-07T04:03:55;4.93;;;4.50;;
21677;SDS011;11000;50.360;7.582;2023-05-07T04:06:16;5.63;;;4.37;;
21677;SDS011;11000;50.360;7.582;2023-05-07T04:08:40;4.33;;;3.93;;
21677;SDS011;11000;50.360;7.582;2023-05-07T04:11:01;6.60;;;4.30;;
21677;SDS011;11000;50.360;7.582;2023-05-07T04:13:21;5.70;;;4.20;;
21677;SDS011;11000;50.360;7.582;2023-05-07T04:15:42;4.80;;;4.30;;
21677;SDS011;11000;50.360;7.582;2023-05-07T04:18:02;5.07;;;4.50;;
21677;SDS011;11000;50.360;7.582;2023-05-07T04:20:23;6.17;;;4.40;;
21677;SDS011;11000;50.360;7.582;2023-05-07T04:22:43;6.53;;;4.67;;
21677;SDS011;11000;50.360;7.582;2023-05-07T04:25:04;4.10;;;3.70;;
21677;SDS011;11000;50.360;7.582;2023-05-07T04:27:25;6.63;;;4.00;;
21677;SDS011;11000;50.360;7.582;2023-05-07T04:29:46;4.90;;;3.27;;
21677;SDS011;11000;50.360;7.582;2023-05-07T04:32:07;5.83;;;3.83;;
21677;SDS011;11000;50.360;7.582;2023-05-07T04:34:28;7.20;;;3.93;;
21677;SDS011;11000;50.360;7.582;2023-05-07T04:36:49;7.10;;;3.57;;
21677;SDS011;11000;50.360;7.582;2023-05-07T04:39:10;6.40;;;4.20;;
21677;SDS011;11000;50.360;7.582;2023-05-07T04:41:30;5.40;;;3.77;;
21677;SDS011;11000;50.360;7.582;2023-05-07T04:43:51;4.97;;;3.60;;
21677;SDS011;11000;50.360;7.582;2023-05-07T04:46:11;5.47;;;4.33;;
21677;SDS011;11000;50.360;7.582;2023-05-07T04:48:32;6.83;;;4.37;;
21677;SDS011;11000;50.360;7.582;2023-05-07T04:50:52;5.83;;;3.93;;
21677;SDS011;11000;50.360;7.582;2023-05-07T04:53:13;8.57;;;4.67;;
21677;SDS011;11000;50.360;7.582;2023-05-07T04:55:33;9.17;;;4.57;;
21677;SDS011;11000;50.360;7.582;2023-05-07T04:57:54;5.60;;;4.20;;
21677;SDS011;11000;50.360;7.582;2023-05-07T05:00:14;9.00;;;4.73;;
21677;SDS011;11000;50.360;7.582;2023-05-07T05:02:36;8.27;;;4.40;;
21677;SDS011;11000;50.360;7.582;2023-05-07T05:04:57;7.70;;;4.87;;
21677;SDS011;11000;50.360;7.582;2023-05-07T05:07:19;5.43;;;4.87;;
21677;SDS011;11000;50.360;7.582;2023-05-07T05:09:39;4.90;;;4.50;;
21677;SDS011;11000;50.360;7.582;2023-05-07T05:12:00;5.33;;;4.77;;
21677;SDS011;11000;50.360;7.582;2023-05-07T05:14:20;7.37;;;4.70;;
21677;SDS011;11000;50.360;7.582;2023-05-07T05:16:41;5.20;;;4.70;;
21677;SDS011;11000;50.360;7.582;2023-05-07T05:19:01;4.97;;;4.07;;
21677;SDS011;11000;50.360;7.582;2023-05-07T05:21:22;10.33;;;4.80;;
21677;SDS011;11000;50.360;7.582;2023-05-07T05:23:43;6.87;;;5.00;;
21677;SDS011;11000;50.360;7.582;2023-05-07T05:26:03;6.17;;;5.00;;
21677;SDS011;11000;50.360;7.582;2023-05-07T05:28:24;5.57;;;5.07;;
21677;SDS011;11000;50.360;7.582;2023-05-07T05:30:45;6.53;;;5.30;;
21677;SDS011;11000;50.360;7.582;2023-05-07T05:33:05;6.83;;;5.43;;
21677;SDS011;11000;50.360;7.582;2023-05-07T05:35:26;6.17;;;5.53;;
21677;SDS011;11000;50.360;7.582;2023-05-07T05:37:46;6.20;;;5.43;;
21677;SDS011;11000;50.360;7.582;2023-05-07T05:40:08;5.50;;;5.00;;
21677;SDS011;11000;50.360;7.582;2023-05-07T05:42:29;8.23;;;5.17;;
21677;SDS011;11000;50.360;7.582;2023-05-07T05:44:49;6.40;;;4.83;;
21677;SDS011;11000;50.360;7.582;2023-05-07T05:47:10;6.93;;;5.13;;
21677;SDS011;11000;50.360;7.582;2023-05-07T05:49:30;5.73;;;4.53;;
21677;SDS011;11000;50.360;7.582;2023-05-07T05:51:51;5.27;;;4.17;;
21677;SDS011;11000;50.360;7.582;2023-05-07T05:54:11;6.30;;;4.47;;
21677;SDS011;11000;50.360;7.582;2023-05-07T05:56:32;5.37;;;4.13;;
21677;SDS011;11000;50.360;7.582;2023-05-07T05:58:53;4.77;;;4.27;;
21677;SDS011;11000;50.360;7.582;2023-05-07T06:01:13;4.27;;;3.97;;
21677;SDS011;11000;50.360;7.582;2023-05-07T06:03:34;5.57;;;4.30;;
21677;SDS011;11000;50.360;7.582;2023-05-07T06:05:54;4.50;;;4.10;;
21677;SDS011;11000;50.360;7.582;2023-05-07T06:08:15;4.00;;;3.60;;
21677;SDS011;11000;50.360;7.582;2023-05-07T06:10:36;4.47;;;4.07;;
21677;SDS011;11000;50.360;7.582;2023-05-07T06:12:57;5.73;;;4.07;;
21677;SDS011;11000;50.360;7.582;2023-05-07T06:15:17;4.30;;;3.70;;
21677;SDS011;11000;50.360;7.582;2023-05-07T06:17:38;4.50;;;3.63;;
21677;SDS011;11000;50.360;7.582;2023-05-07T06:19:58;6.27;;;3.83;;
21677;SDS011;11000;50.360;7.582;2023-05-07T06:22:19;3.80;;;3.33;;
21677;SDS011;11000;50.360;7.582;2023-05-07T06:24:39;4.37;;;3.40;;
21677;SDS011;11000;50.360;7.582;2023-05-07T06:27:00;3.30;;;3.10;;
21677;SDS011;11000;50.360;7.582;2023-05-07T06:29:21;3.33;;;3.03;;
21677;SDS011;11000;50.360;7.582;2023-05-07T06:31:41;3.43;;;2.53;;
21677;SDS011;11000;50.360;7.582;2023-05-07T06:34:02;3.33;;;2.83;;
21677;SDS011;11000;50.360;7.582;2023-05-07T06:36:22;4.43;;;2.83;;
21677;SDS011;11000;50.360;7.582;2023-05-07T06:38:43;5.10;;;3.83;;
21677;SDS011;11000;50.360;7.582;2023-05-07T06:41:03;4.57;;;2.83;;
21677;SDS011;11000;50.360;7.582;2023-05-07T06:43:25;3.70;;;3.23;;
21677;SDS011;11000;50.360;7.582;2023-05-07T06:45:46;3.60;;;2.90;;
21677;SDS011;11000;50.360;7.582;2023-05-07T06:48:07;2.67;;;2.47;;
21677;SDS011;11000;50.360;7.582;2023-05-07T06:50:27;6.93;;;2.43;;
21677;SDS011;11000;50.360;7.582;2023-05-07T06:52:48;4.07;;;2.57;;
21677;SDS011;11000;50.360;7.582;2023-05-07T06:55:12;4.27;;;2.40;;
21677;SDS011;11000;50.360;7.582;2023-05-07T06:57:33;2.43;;;2.23;;
21677;SDS011;11000;50.360;7.582;2023-05-07T06:59:55;4.37;;;2.37;;
21677;SDS011;11000;50.360;7.582;2023-05-07T07:02:16;2.77;;;2.33;;
21677;SDS011;11000;50.360;7.582;2023-05-07T07:04:36;3.47;;;2.40;;
21677;SDS011;11000;50.360;7.582;2023-05-07T07:06:57;3.17;;;2.00;;
21677;SDS011;11000;50.360;7.582;2023-05-07T07:09:19;2.93;;;2.37;;
21677;SDS011;11000;50.360;7.582;2023-05-07T07:11:40;3.50;;;2.27;;
21677;SDS011;11000;50.360;7.582;2023-05-07T07:14:00;3.37;;;1.97;;
21677;SDS011;11000;50.360;7.582;2023-05-07T07:16:22;2.43;;;2.23;;
21677;SDS011;11000;50.360;7.582;2023-05-07T07:18:42;2.90;;;2.50;;
21677;SDS011;11000;50.360;7.582;2023-05-07T07:21:03;6.33;;;2.47;;
21677;SDS011;11000;50.360;7.582;2023-05-07T07:23:24;5.37;;;2.63;;
21677;SDS011;11000;50.360;7.582;2023-05-07T07:25:45;3.97;;;2.13;;
21677;SDS011;11000;50.360;7.582;2023-05-07T07:28:06;3.00;;;2.70;;
21677;SDS011;11000;50.360;7.582;2023-05-07T07:30:26;3.73;;;2.30;;
21677;SDS011;11000;50.360;7.582;2023-05-07T07:32:47;2.57;;;2.37;;
21677;SDS011;11000;50.360;7.582;2023-05-07T07:35:08;2.43;;;2.13;;
21677;SDS011;11000;50.360;7.582;2023-05-07T07:37:29;3.13;;;2.40;;
21677;SDS011;11000;50.360;7.582;2023-05-07T07:39:49;1.87;;;1.77;;
21677;SDS011;11000;50.360;7.582;2023-05-07T07:42:10;2.07;;;1.97;;
21677;SDS011;11000;50.360;7.582;2023-05-07T07:44:30;3.83;;;1.80;;
21677;SDS011;11000;50.360;7.582;2023-05-07T07:46:51;2.57;;;1.77;;
21677;SDS011;11000;50.360;7.582;2023-05-07T07:49:11;2.07;;;1.80;;
21677;SDS011;11000;50.360;7.582;2023-05-07T07:51:32;2.40;;;1.87;;
21677;SDS011;11000;50.360;7.582;2023-05-07T07:53:52;1.80;;;1.70;;
21677;SDS011;11000;50.360;7.582;2023-05-07T07:56:13;3.57;;;1.63;;
21677;SDS011;11000;50.360;7.582;2023-05-07T07:58:34;2.13;;;1.50;;
21677;SDS011;11000;50.360;7.582;2023-05-07T08:00:55;2.87;;;1.73;;
21677;SDS011;11000;50.360;7.582;2023-05-07T08:03:16;3.03;;;1.83;;
21677;SDS011;11000;50.360;7.582;2023-05-07T08:05:36;2.53;;;1.47;;
21677;SDS011;11000;50.360;7.582;2023-05-07T08:07:58;2.10;;;1.90;;
21677;SDS011;11000;50.360;7.582;2023-05-07T08:10:18;3.33;;;1.90;;
21677;SDS011;11000;50.360;7.582;2023-05-07T08:12:42;2.40;;;1.97;;
21677;SDS011;11000;50.360;7.582;2023-05-07T08:15:03;3.83;;;2.30;;
21677;SDS011;11000;50.360;7.582;2023-05-07T08:17:24;2.23;;;1.80;;
21677;SDS011;11000;50.360;7.582;2023-05-07T08:19:45;2.63;;;1.80;;
21677;SDS011;11000;50.360;7.582;2023-05-07T08:22:05;2.20;;;1.70;;
21677;SDS011;11000;50.360;7.582;2023-05-07T08:24:26;2.87;;;1.70;;
21677;SDS011;11000;50.360;7.582;2023-05-07T08:26:46;3.03;;;1.97;;
21677;SDS011;11000;50.360;7.582;2023-05-07T08:29:07;2.37;;;1.20;;
21677;SDS011;11000;50.360;7.582;2023-05-07T08:31:27;3.23;;;1.80;;
21677;SDS011;11000;50.360;7.582;2023-05-07T08:33:48;2.27;;;1.80;;
21677;SDS011;11000;50.360;7.582;2023-05-07T08:36:09;2.77;;;1.80;;
21677;SDS011;11000;50.360;7.582;2023-05-07T08:38:30;2.37;;;1.60;;
21677;SDS011;11000;50.360;7.582;2023-05-07T08:40:52;1.93;;;1.43;;
21677;SDS011;11000;50.360;7.582;2023-05-07T08:43:13;3.97;;;1.50;;
21677;SDS011;11000;50.360;7.582;2023-05-07T08:45:35;1.63;;;1.53;;
21677;SDS011;11000;50.360;7.582;2023-05-07T08:48:02;2.50;;;1.57;;
21677;SDS011;11000;50.360;7.582;2023-05-07T08:50:25;4.70;;;1.93;;
21677;SDS011;11000;50.360;7.582;2023-05-07T08:52:46;2.93;;;2.23;;
21677;SDS011;11000;50.360;7.582;2023-05-07T08:55:08;2.60;;;1.60;;
21677;SDS011;11000;50.360;7.582;2023-05-07T08:57:29;2.00;;;1.73;;
21677;SDS011;11000;50.360;7.582;2023-05-07T08:59:49;2.80;;;1.60;;
21677;SDS011;11000;50.360;7.582;2023-05-07T09:02:10;5.50;;;1.70;;
21677;SDS011;11000;50.360;7.582;2023-05-07T09:04:31;2.30;;;1.43;;
21677;SDS011;11000;50.360;7.582;2023-05-07T09:06:52;3.07;;;1.90;;
21677;SDS011;11000;50.360;7.582;2023-05-07T09:09:14;2.43;;;1.30;;
21677;SDS011;11000;50.360;7.582;2023-05-07T09:11:37;1.90;;;1.50;;
21677;SDS011;11000;50.360;7.582;2023-05-07T09:13:58;2.23;;;1.70;;
21677;SDS011;11000;50.360;7.582;2023-05-07T09:16:21;2.20;;;1.50;;
21677;SDS011;11000;50.360;7.582;2023-05-07T09:18:42;2.73;;;1.50;;
21677;SDS011;11000;50.360;7.582;2023-05-07T09:21:03;2.03;;;1.53;;
21677;SDS011;11000;50.360;7.582;2023-05-07T09:23:24;2.60;;;1.97;;
21677;SDS011;11000;50.360;7.582;2023-05-07T09:25:44;2.20;;;1.70;;
21677;SDS011;11000;50.360;7.582;2023-05-07T09:28:05;1.80;;;1.40;;
21677;SDS011;11000;50.360;7.582;2023-05-07T09:30:27;2.27;;;1.70;;
21677;SDS011;11000;50.360;7.582;2023-05-07T09:32:49;2.53;;;1.80;;
21677;SDS011;11000;50.360;7.582;2023-05-07T09:35:16;2.73;;;1.70;;
21677;SDS011;11000;50.360;7.582;2023-05-07T09:37:37;2.90;;;1.47;;
21677;SDS011;11000;50.360;7.582;2023-05-07T09:39:58;1.93;;;1.80;;
21677;SDS011;11000;50.360;7.582;2023-05-07T09:42:23;3.03;;;1.30;;
21677;SDS011;11000;50.360;7.582;2023-05-07T09:44:44;6.97;;;1.73;;
21677;SDS011;11000;50.360;7.582;2023-05-07T09:47:05;1.67;;;1.57;;
21677;SDS011;11000;50.360;7.582;2023-05-07T09:49:28;1.47;;;1.10;;
21677;SDS011;11000;50.360;7.582;2023-05-07T09:51:50;1.60;;;1.27;;
21677;SDS011;11000;50.360;7.582;2023-05-07T09:54:12;4.90;;;1.57;;
21677;SDS011;11000;50.360;7.582;2023-05-07T09:56:32;1.53;;;1.40;;
21677;SDS011;11000;50.360;7.582;2023-05-07T09:58:54;2.17;;;1.30;;
21677;SDS011;11000;50.360;7.582;2023-05-07T10:01:17;3.50;;;1.43;;
21677;SDS011;11000;50.360;7.582;2023-05-07T10:03:41;2.93;;;1.50;;
21677;SDS011;11000;50.360;7.582;2023-05-07T10:06:04;2.87;;;1.30;;
21677;SDS011;11000;50.360;7.582;2023-05-07T10:08:25;1.23;;;1.13;;
21677;SDS011;11000;50.360;7.582;2023-05-07T10:10:46;2.27;;;1.30;;
21677;SDS011;11000;50.360;7.582;2023-05-07T10:13:07;1.37;;;1.17;;
21677;SDS011;11000;50.360;7.582;2023-05-07T10:15:33;3.50;;;1.40;;
21677;SDS011;11000;50.360;7.582;2023-05-07T10:17:54;1.30;;;1.20;;
21677;SDS011;11000;50.360;7.582;2023-05-07T10:20:16;2.13;;;1.10;;
21677;SDS011;11000;50.360;7.582;2023-05-07T10:22:47;1.80;;;1.40;;
21677;SDS011;11000;50.360;7.582;2023-05-07T10:25:18;2.23;;;1.30;;
21677;SDS011;11000;50.360;7.582;2023-05-07T10:27:42;2.07;;;1.10;;
21677;SDS011;11000;50.360;7.582;2023-05-07T10:32:39;1.60;;;1.13;;
21677;SDS011;11000;50.360;7.582;2023-05-07T10:35:02;1.57;;;1.20;;
21677;SDS011;11000;50.360;7.582;2023-05-07T10:37:32;2.07;;;1.20;;
21677;SDS011;11000;50.360;7.582;2023-05-07T10:39:53;1.13;;;1.07;;
21677;SDS011;11000;50.360;7.582;2023-05-07T10:42:14;2.23;;;1.20;;
21677;SDS011;11000;50.360;7.582;2023-05-07T10:44:35;1.90;;;1.40;;
21677;SDS011;11000;50.360;7.582;2023-05-07T10:47:13;1.83;;;1.20;;
21677;SDS011;11000;50.360;7.582;2023-05-07T10:49:38;5.97;;;1.30;;
21677;SDS011;11000;50.360;7.582;2023-05-07T10:52:26;2.10;;;1.40;;
21677;SDS011;11000;50.360;7.582;2023-05-07T10:54:46;1.63;;;1.30;;
21677;SDS011;11000;50.360;7.582;2023-05-07T10:57:33;2.33;;;1.30;;
21677;SDS011;11000;50.360;7.582;2023-05-07T10:59:59;1.93;;;1.20;;
21677;SDS011;11000;50.360;7.582;2023-05-07T11:02:20;1.70;;;1.20;;
21677;SDS011;11000;50.360;7.582;2023-05-07T11:04:41;1.60;;;1.50;;
21677;SDS011;11000;50.360;7.582;2023-05-07T11:10:04;1.20;;;1.00;;
21677;SDS011;11000;50.360;7.582;2023-05-07T11:14:58;2.23;;;1.50;;
21677;SDS011;11000;50.360;7.582;2023-05-07T11:17:19;2.17;;;1.30;;
21677;SDS011;11000;50.360;7.582;2023-05-07T11:24:52;1.83;;;1.73;;
21677;SDS011;11000;50.360;7.582;2023-05-07T11:27:13;3.73;;;1.20;;
21677;SDS011;11000;50.360;7.582;2023-05-07T11:29:34;2.33;;;1.50;;
21677;SDS011;11000;50.360;7.582;2023-05-07T11:31:55;2.20;;;1.47;;
21677;SDS011;11000;50.360;7.582;2023-05-07T11:34:16;2.53;;;1.63;;
21677;SDS011;11000;50.360;7.582;2023-05-07T11:36:42;1.70;;;1.40;;
21677;SDS011;11000;50.360;7.582;2023-05-07T11:39:04;2.80;;;1.40;;
21677;SDS011;11000;50.360;7.582;2023-05-07T11:41:34;2.23;;;1.50;;
21677;SDS011;11000;50.360;7.582;2023-05-07T11:43:57;2.33;;;1.57;;
21677;SDS011;11000;50.360;7.582;2023-05-07T11:46:19;2.87;;;1.80;;
21677;SDS011;11000;50.360;7.582;2023-05-07T11:48:40;2.63;;;1.30;;
21677;SDS011;11000;50.360;7.582;2023-05-07T11:51:02;4.20;;;1.60;;
21677;SDS011;11000;50.360;7.582;2023-05-07T11:53:25;3.07;;;1.60;;
21677;SDS011;11000;50.360;7.582;2023-05-07T11:55:48;2.67;;;1.57;;
21677;SDS011;11000;50.360;7.582;2023-05-07T11:58:15;2.27;;;1.53;;
21677;SDS011;11000;50.360;7.582;2023-05-07T12:00:47;2.90;;;1.67;;
21677;SDS011;11000;50.360;7.582;2023-05-07T12:03:11;1.70;;;1.60;;
21677;SDS011;11000;50.360;7.582;2023-05-07T12:05:32;1.70;;;1.60;;
21677;SDS011;11000;50.360;7.582;2023-05-07T12:07:55;1.70;;;1.60;;
21677;SDS011;11000;50.360;7.582;2023-05-07T12:10:17;2.17;;;1.70;;
21677;SDS011;11000;50.360;7.582;2023-05-07T12:12:45;2.57;;;1.70;;
21677;SDS011;11000;50.360;7.582;2023-05-07T12:15:06;3.03;;;2.00;;
21677;SDS011;11000;50.360;7.582;2023-05-07T12:17:27;1.83;;;1.60;;
21677;SDS011;11000;50.360;7.582;2023-05-07T12:19:48;2.00;;;1.80;;
21677;SDS011;11000;50.360;7.582;2023-05-07T12:22:09;2.67;;;1.60;;
21677;SDS011;11000;50.360;7.582;2023-05-07T12:24:49;4.83;;;1.83;;
21677;SDS011;11000;50.360;7.582;2023-05-07T12:27:17;2.43;;;1.70;;
21677;SDS011;11000;50.360;7.582;2023-05-07T12:29:37;3.43;;;1.63;;
21677;SDS011;11000;50.360;7.582;2023-05-07T12:31:59;1.73;;;1.60;;
21677;SDS011;11000;50.360;7.582;2023-05-07T12:34:20;2.97;;;1.67;;
21677;SDS011;11000;50.360;7.582;2023-05-07T12:36:42;1.70;;;1.60;;
21677;SDS011;11000;50.360;7.582;2023-05-07T12:39:03;3.57;;;1.90;;
21677;SDS011;11000;50.360;7.582;2023-05-07T12:41:25;1.50;;;1.40;;
21677;SDS011;11000;50.360;7.582;2023-05-07T12:43:49;3.00;;;1.47;;
21677;SDS011;11000;50.360;7.582;2023-05-07T12:46:09;2.27;;;1.60;;
21677;SDS011;11000;50.360;7.582;2023-05-07T12:48:30;2.60;;;1.73;;
21677;SDS011;11000;50.360;7.582;2023-05-07T12:50:51;2.27;;;1.67;;
21677;SDS011;11000;50.360;7.582;2023-05-07T12:53:13;3.13;;;1.90;;
21677;SDS011;11000;50.360;7.582;2023-05-07T12:55:45;2.13;;;1.60;;
21677;SDS011;11000;50.360;7.582;2023-05-07T12:58:06;2.20;;;1.47;;
21677;SDS011;11000;50.360;7.582;2023-05-07T13:00:37;4.13;;;1.73;;
21677;SDS011;11000;50.360;7.582;2023-05-07T13:02:58;2.53;;;1.90;;
21677;SDS011;11000;50.360;7.582;2023-05-07T13:05:19;3.77;;;1.80;;
21677;SDS011;11000;50.360;7.582;2023-05-07T13:07:40;2.10;;;1.50;;
21677;SDS011;11000;50.360;7.582;2023-05-07T13:10:12;1.70;;;1.60;;
21677;SDS011;11000;50.360;7.582;2023-05-07T13:12:32;2.20;;;1.90;;
21677;SDS011;11000;50.360;7.582;2023-05-07T13:14:53;2.20;;;2.00;;
21677;SDS011;11000;50.360;7.582;2023-05-07T13:17:14;1.93;;;1.83;;
21677;SDS011;11000;50.360;7.582;2023-05-07T13:19:35;1.80;;;1.70;;
21677;SDS011;11000;50.360;7.582;2023-05-07T13:21:57;1.80;;;1.63;;
21677;SDS011;11000;50.360;7.582;2023-05-07T13:24:18;2.10;;;2.00;;
21677;SDS011;11000;50.360;7.582;2023-05-07T13:26:38;2.00;;;1.80;;
21677;SDS011;11000;50.360;7.582;2023-05-07T13:28:59;3.57;;;2.00;;
21677;SDS011;11000;50.360;7.582;2023-05-07T13:31:19;2.20;;;1.90;;
21677;SDS011;11000;50.360;7.582;2023-05-07T13:33:40;3.17;;;2.63;;
21677;SDS011;11000;50.360;7.582;2023-05-07T13:36:01;3.17;;;2.07;;
21677;SDS011;11000;50.360;7.582;2023-05-07T13:38:25;2.13;;;1.93;;
21677;SDS011;11000;50.360;7.582;2023-05-07T13:40:47;4.57;;;2.10;;
21677;SDS011;11000;50.360;7.582;2023-05-07T13:43:07;2.60;;;1.73;;
21677;SDS011;11000;50.360;7.582;2023-05-07T13:45:28;3.20;;;1.90;;
21677;SDS011;11000;50.360;7.582;2023-05-07T13:47:49;2.30;;;2.10;;
21677;SDS011;11000;50.360;7.582;2023-05-07T13:50:12;1.97;;;1.77;;
21677;SDS011;11000;50.360;7.582;2023-05-07T13:52:37;2.90;;;1.80;;
21677;SDS011;11000;50.360;7.582;2023-05-07T13:55:00;1.90;;;1.73;;
21677;SDS011;11000;50.360;7.582;2023-05-07T13:57:20;5.10;;;2.20;;
21677;SDS011;11000;50.360;7.582;2023-05-07T13:59:41;2.03;;;1.83;;
21677;SDS011;11000;50.360;7.582;2023-05-07T14:02:02;2.53;;;2.07;;
21677;SDS011;11000;50.360;7.582;2023-05-07T14:04:23;2.10;;;1.90;;
21677;SDS011;11000;50.360;7.582;2023-05-07T14:06:43;3.30;;;2.13;;
21677;SDS011;11000;50.360;7.582;2023-05-07T14:09:04;2.10;;;2.00;;
21677;SDS011;11000;50.360;7.582;2023-05-07T14:11:25;2.23;;;2.03;;
21677;SDS011;11000;50.360;7.582;2023-05-07T14:13:45;5.23;;;2.80;;
21677;SDS011;11000;50.360;7.582;2023-05-07T14:16:06;4.27;;;2.63;;
21677;SDS011;11000;50.360;7.582;2023-05-07T14:18:26;3.70;;;2.53;;
21677;SDS011;11000;50.360;7.582;2023-05-07T14:20:48;5.20;;;2.47;;
21677;SDS011;11000;50.360;7.582;2023-05-07T14:23:12;4.60;;;2.70;;
21677;SDS011;11000;50.360;7.582;2023-05-07T14:25:32;3.87;;;2.57;;
21677;SDS011;11000;50.360;7.582;2023-05-07T14:27:53;2.83;;;2.53;;